sensor_id;sensor_type;location;lat;lon;timestamp;pressure;altitude;pressure_sealevel;temperature;humidity
50859;BME280;36826;47.514;19.056;2023-07-31T00:00:58;99791.53;;;29.55;43.01
50859;BME280;36826;47.514;19.056;2023-07-31T00:03:24;99795.13;;;29.50;43.01
50859;BME280;36826;47.514;19.056;2023-07-31T00:05:49;99798.19;;;29.59;42.73
50859;BME280;36826;47.514;19.056;2023-07-31T00:08:15;99793.06;;;29.25;43.22
50859;BME280;36826;47.514;19.056;2023-07-31T00:10:40;99795.38;;;29.44;42.82
50859;BME280;36826;47.514;19.056;2023-07-31T00:13:05;99794.25;;;29.50;42.58
50859;BME280;36826;47.514;19.056;2023-07-31T00:15:31;99791.03;;;29.84;42.03
50859;BME280;36826;47.514;19.056;2023-07-31T00:17:56;99798.72;;;29.66;42.03
50859;BME280;36826;47.514;19.056;2023-07-31T00:20:22;99793.84;;;29.94;41.50
50859;BME280;36826;47.514;19.056;2023-07-31T00:22:48;99794.31;;;29.60;42.25
50859;BME280;36826;47.514;19.056;2023-07-31T00:25:13;99795.72;;;29.68;42.01
50859;BME280;36826;47.514;19.056;2023-07-31T00:27:39;99797.84;;;29.40;42.01
50859;BME280;36826;47.514;19.056;2023-07-31T00:30:10;99799.31;;;29.79;41.67
50859;BME280;36826;47.514;19.056;2023-07-31T00:32:35;99799.31;;;29.84;41.25
50859;BME280;36826;47.514;19.056;2023-07-31T00:35:01;99803.72;;;29.75;41.52
50859;BME280;36826;47.514;19.056;2023-07-31T00:37:27;99795.41;;;29.49;42.03
50859;BME280;36826;47.514;19.056;2023-07-31T00:39:52;99801.53;;;29.82;41.23
50859;BME280;36826;47.514;19.056;2023-07-31T00:42:18;99801.41;;;29.35;42.04
50859;BME280;36826;47.514;19.056;2023-07-31T00:44:43;99810.22;;;28.41;44.07
50859;BME280;36826;47.514;19.056;2023-07-31T00:47:09;99807.59;;;27.97;44.92
50859;BME280;36826;47.514;19.056;2023-07-31T00:49:34;99814.72;;;29.64;41.45
50859;BME280;36826;47.514;19.056;2023-07-31T00:52:00;99804.22;;;29.56;42.12
50859;BME280;36826;47.514;19.056;2023-07-31T00:54:27;99809.78;;;29.72;41.37
50859;BME280;36826;47.514;19.056;2023-07-31T00:56:54;99814.03;;;29.26;42.68
50859;BME280;36826;47.514;19.056;2023-07-31T00:59:20;99804.63;;;30.32;40.44
50859;BME280;36826;47.514;19.056;2023-07-31T01:01:46;99816.75;;;29.16;42.50
50859;BME280;36826;47.514;19.056;2023-07-31T01:04:13;99816.78;;;29.21;42.67
50859;BME280;36826;47.514;19.056;2023-07-31T01:06:51;99806.69;;;29.47;42.33
50859;BME280;36826;47.514;19.056;2023-07-31T01:09:30;99805.16;;;30.39;40.45
50859;BME280;36826;47.514;19.056;2023-07-31T01:12:02;99809.13;;;29.38;42.61
50859;BME280;36826;47.514;19.056;2023-07-31T01:14:28;99817.13;;;28.82;43.58
50859;BME280;36826;47.514;19.056;2023-07-31T01:16:54;99808.41;;;29.74;41.70
50859;BME280;36826;47.514;19.056;2023-07-31T01:19:24;99817.84;;;29.94;41.38
50859;BME280;36826;47.514;19.056;2023-07-31T01:27:24;99826.13;;;29.99;41.55
50859;BME280;36826;47.514;19.056;2023-07-31T01:30:11;99836.59;;;29.92;41.53
50859;BME280;36826;47.514;19.056;2023-07-31T01:32:42;99837.47;;;28.43;44.49
50859;BME280;36826;47.514;19.056;2023-07-31T01:35:08;99830.00;;;29.24;42.89
50859;BME280;36826;47.514;19.056;2023-07-31T01:37:34;99837.34;;;28.98;43.49
50859;BME280;36826;47.514;19.056;2023-07-31T01:40:00;99823.53;;;28.55;44.62
50859;BME280;36826;47.514;19.056;2023-07-31T01:42:25;99833.97;;;28.85;43.52
50859;BME280;36826;47.514;19.056;2023-07-31T01:44:51;99821.19;;;29.22;42.64
50859;BME280;36826;47.514;19.056;2023-07-31T01:47:16;99828.91;;;29.20;42.85
50859;BME280;36826;47.514;19.056;2023-07-31T01:49:42;99821.81;;;29.39;42.55
50859;BME280;36826;47.514;19.056;2023-07-31T01:52:07;99818.00;;;29.51;42.15
50859;BME280;36826;47.514;19.056;2023-07-31T01:54:33;99808.44;;;28.25;44.39
50859;BME280;36826;47.514;19.056;2023-07-31T01:56:58;99808.44;;;28.25;44.05
50859;BME280;36826;47.514;19.056;2023-07-31T01:59:24;99808.34;;;28.85;42.76
50859;BME280;36826;47.514;19.056;2023-07-31T02:01:50;99810.75;;;27.78;44.76
50859;BME280;36826;47.514;19.056;2023-07-31T02:04:15;99806.91;;;27.35;45.83
50859;BME280;36826;47.514;19.056;2023-07-31T02:06:41;99802.34;;;28.60;43.09
50859;BME280;36826;47.514;19.056;2023-07-31T02:09:06;99802.00;;;27.86;44.52
50859;BME280;36826;47.514;19.056;2023-07-31T02:11:32;99802.28;;;27.35;45.98
50859;BME280;36826;47.514;19.056;2023-07-31T02:13:59;99791.94;;;26.64;47.62
50859;BME280;36826;47.514;19.056;2023-07-31T02:16:24;99806.69;;;27.14;46.45
50859;BME280;36826;47.514;19.056;2023-07-31T02:18:49;99801.94;;;27.32;45.97
50859;BME280;36826;47.514;19.056;2023-07-31T02:21:15;99810.59;;;28.23;44.19
50859;BME280;36826;47.514;19.056;2023-07-31T02:23:40;99820.44;;;28.46;43.82
50859;BME280;36826;47.514;19.056;2023-07-31T02:26:06;99816.38;;;27.44;45.27
50859;BME280;36826;47.514;19.056;2023-07-31T02:28:31;99815.72;;;28.41;43.76
50859;BME280;36826;47.514;19.056;2023-07-31T02:30:57;99811.84;;;28.75;42.74
50859;BME280;36826;47.514;19.056;2023-07-31T02:33:22;99823.50;;;28.17;43.57
50859;BME280;36826;47.514;19.056;2023-07-31T02:35:48;99824.22;;;29.26;41.56
50859;BME280;36826;47.514;19.056;2023-07-31T02:38:13;99820.25;;;28.58;42.84
50859;BME280;36826;47.514;19.056;2023-07-31T02:40:40;99824.59;;;28.86;42.24
50859;BME280;36826;47.514;19.056;2023-07-31T02:43:08;99815.81;;;29.53;41.02
50859;BME280;36826;47.514;19.056;2023-07-31T02:45:34;99819.97;;;28.97;41.64
50859;BME280;36826;47.514;19.056;2023-07-31T02:48:00;99821.19;;;28.36;42.85
50859;BME280;36826;47.514;19.056;2023-07-31T02:50:25;99817.41;;;27.87;44.19
50859;BME280;36826;47.514;19.056;2023-07-31T02:52:51;99821.81;;;27.39;44.96
50859;BME280;36826;47.514;19.056;2023-07-31T02:55:16;99829.75;;;27.13;45.67
50859;BME280;36826;47.514;19.056;2023-07-31T02:57:42;99832.63;;;27.23;45.42
50859;BME280;36826;47.514;19.056;2023-07-31T03:00:07;99840.00;;;27.40;45.22
50859;BME280;36826;47.514;19.056;2023-07-31T03:02:33;99839.59;;;27.31;44.99
50859;BME280;36826;47.514;19.056;2023-07-31T03:04:58;99837.81;;;27.42;44.90
50859;BME280;36826;47.514;19.056;2023-07-31T03:07:24;99840.31;;;27.44;45.07
50859;BME280;36826;47.514;19.056;2023-07-31T03:09:50;99850.28;;;27.50;44.48
50859;BME280;36826;47.514;19.056;2023-07-31T03:12:15;99844.97;;;27.65;44.36
50859;BME280;36826;47.514;19.056;2023-07-31T03:14:41;99849.25;;;27.34;44.99
50859;BME280;36826;47.514;19.056;2023-07-31T03:17:06;99852.34;;;27.60;44.90
50859;BME280;36826;47.514;19.056;2023-07-31T03:19:32;99855.13;;;27.42;45.11
50859;BME280;36826;47.514;19.056;2023-07-31T03:21:59;99857.16;;;27.47;44.98
50859;BME280;36826;47.514;19.056;2023-07-31T03:24:25;99852.44;;;27.03;45.83
50859;BME280;36826;47.514;19.056;2023-07-31T03:26:51;99858.06;;;27.36;45.01
50859;BME280;36826;47.514;19.056;2023-07-31T03:29:16;99862.47;;;28.31;42.99
50859;BME280;36826;47.514;19.056;2023-07-31T03:31:41;99868.47;;;28.28;43.00
50859;BME280;36826;47.514;19.056;2023-07-31T03:34:07;99868.44;;;27.73;43.84
50859;BME280;36826;47.514;19.056;2023-07-31T03:36:32;99863.78;;;28.23;42.93
50859;BME280;36826;47.514;19.056;2023-07-31T03:38:58;99869.88;;;29.49;40.52
50859;BME280;36826;47.514;19.056;2023-07-31T03:41:23;99860.44;;;29.34;40.57
50859;BME280;36826;47.514;19.056;2023-07-31T03:43:50;99854.78;;;31.12;37.92
50859;BME280;36826;47.514;19.056;2023-07-31T03:46:21;99859.38;;;31.52;37.12
50859;BME280;36826;47.514;19.056;2023-07-31T03:48:47;99862.28;;;32.27;35.69
50859;BME280;36826;47.514;19.056;2023-07-31T03:51:13;99865.34;;;33.43;33.32
50859;BME280;36826;47.514;19.056;2023-07-31T03:53:38;99867.88;;;33.59;32.87
50859;BME280;36826;47.514;19.056;2023-07-31T03:56:04;99858.53;;;33.74;32.75
50859;BME280;36826;47.514;19.056;2023-07-31T03:58:30;99859.44;;;35.07;30.64
50859;BME280;36826;47.514;19.056;2023-07-31T04:00:55;99857.13;;;35.78;29.98
50859;BME280;36826;47.514;19.056;2023-07-31T04:03:21;99862.88;;;36.64;28.26
50859;BME280;36826;47.514;19.056;2023-07-31T04:05:46;99864.94;;;37.71;26.97
50859;BME280;36826;47.514;19.056;2023-07-31T04:08:12;99870.41;;;37.94;26.66
50859;BME280;36826;47.514;19.056;2023-07-31T04:10:37;99869.91;;;38.00;25.78
50859;BME280;36826;47.514;19.056;2023-07-31T04:13:04;99867.41;;;37.81;26.36
50859;BME280;36826;47.514;19.056;2023-07-31T04:15:30;99873.16;;;37.85;26.11
50859;BME280;36826;47.514;19.056;2023-07-31T04:17:55;99871.97;;;38.82;24.64
50859;BME280;36826;47.514;19.056;2023-07-31T04:20:21;99866.31;;;37.91;25.80
50859;BME280;36826;47.514;19.056;2023-07-31T04:22:48;99863.03;;;37.40;26.43
50859;BME280;36826;47.514;19.056;2023-07-31T04:25:14;99869.66;;;37.04;26.76
50859;BME280;36826;47.514;19.056;2023-07-31T04:27:39;99870.91;;;34.72;29.84
50859;BME280;36826;47.514;19.056;2023-07-31T04:30:05;99869.88;;;34.68;30.07
50859;BME280;36826;47.514;19.056;2023-07-31T04:32:31;99868.06;;;34.25;30.47
50859;BME280;36826;47.514;19.056;2023-07-31T04:34:57;99866.78;;;34.17;30.58
50859;BME280;36826;47.514;19.056;2023-07-31T04:37:22;99861.38;;;35.06;29.52
50859;BME280;36826;47.514;19.056;2023-07-31T04:39:47;99860.13;;;34.84;29.42
50859;BME280;36826;47.514;19.056;2023-07-31T04:42:14;99863.28;;;34.64;29.35
50859;BME280;36826;47.514;19.056;2023-07-31T04:44:41;99861.19;;;34.55;29.38
50859;BME280;36826;47.514;19.056;2023-07-31T04:47:06;99866.03;;;34.31;29.78
50859;BME280;36826;47.514;19.056;2023-07-31T04:49:32;99869.13;;;35.51;28.67
50859;BME280;36826;47.514;19.056;2023-07-31T04:51:58;99870.66;;;34.54;29.65
50859;BME280;36826;47.514;19.056;2023-07-31T04:54:23;99873.53;;;34.49;29.82
50859;BME280;36826;47.514;19.056;2023-07-31T04:56:49;99869.50;;;33.84;30.51
50859;BME280;36826;47.514;19.056;2023-07-31T04:59:14;99870.16;;;33.32;30.24
50859;BME280;36826;47.514;19.056;2023-07-31T05:01:40;99879.09;;;33.73;29.89
50859;BME280;36826;47.514;19.056;2023-07-31T05:04:05;99868.94;;;31.86;31.74
50859;BME280;36826;47.514;19.056;2023-07-31T05:06:32;99866.91;;;32.71;31.49
50859;BME280;36826;47.514;19.056;2023-07-31T05:08:57;99881.22;;;32.84;30.91
50859;BME280;36826;47.514;19.056;2023-07-31T05:11:23;99881.41;;;32.93;30.39
50859;BME280;36826;47.514;19.056;2023-07-31T05:13:48;99878.44;;;32.09;31.10
50859;BME280;36826;47.514;19.056;2023-07-31T05:16:14;99884.34;;;32.42;30.16
50859;BME280;36826;47.514;19.056;2023-07-31T05:18:39;99881.88;;;32.70;30.09
50859;BME280;36826;47.514;19.056;2023-07-31T05:21:05;99876.22;;;33.78;27.68
50859;BME280;36826;47.514;19.056;2023-07-31T05:23:30;99882.03;;;34.39;27.04
50859;BME280;36826;47.514;19.056;2023-07-31T05:26:07;99887.78;;;36.15;24.44
50859;BME280;36826;47.514;19.056;2023-07-31T05:28:35;99884.28;;;34.70;26.11
50859;BME280;36826;47.514;19.056;2023-07-31T05:31:02;99877.59;;;34.38;26.46
50859;BME280;36826;47.514;19.056;2023-07-31T05:33:27;99890.63;;;36.01;24.73
50859;BME280;36826;47.514;19.056;2023-07-31T05:35:53;99885.69;;;37.96;22.22
50859;BME280;36826;47.514;19.056;2023-07-31T05:38:18;99873.97;;;38.64;21.08
50859;BME280;36826;47.514;19.056;2023-07-31T05:40:44;99875.78;;;38.60;20.84
50859;BME280;36826;47.514;19.056;2023-07-31T05:43:10;99872.94;;;35.41;23.85
50859;BME280;36826;47.514;19.056;2023-07-31T05:45:35;99875.81;;;34.09;25.69
50859;BME280;36826;47.514;19.056;2023-07-31T05:48:02;99889.06;;;36.86;23.12
50859;BME280;36826;47.514;19.056;2023-07-31T05:50:27;99883.81;;;39.57;20.42
50859;BME280;36826;47.514;19.056;2023-07-31T05:52:53;99887.16;;;41.15;18.48
50859;BME280;36826;47.514;19.056;2023-07-31T05:55:18;99893.94;;;41.63;18.21
50859;BME280;36826;47.514;19.056;2023-07-31T05:57:44;99894.53;;;41.19;18.07
50859;BME280;36826;47.514;19.056;2023-07-31T06:00:13;99900.31;;;40.77;18.17
50859;BME280;36826;47.514;19.056;2023-07-31T06:02:40;99890.75;;;37.85;21.07
50859;BME280;36826;47.514;19.056;2023-07-31T06:05:05;99894.53;;;40.27;19.82
50859;BME280;36826;47.514;19.056;2023-07-31T06:07:32;99901.94;;;40.78;18.37
50859;BME280;36826;47.514;19.056;2023-07-31T06:09:57;99906.72;;;41.48;17.94
50859;BME280;36826;47.514;19.056;2023-07-31T06:12:31;99894.28;;;39.69;19.32
50859;BME280;36826;47.514;19.056;2023-07-31T06:14:56;99910.22;;;38.26;20.63
50859;BME280;36826;47.514;19.056;2023-07-31T06:17:22;99910.78;;;37.70;21.46
50859;BME280;36826;47.514;19.056;2023-07-31T06:19:49;99895.13;;;37.42;21.88
50859;BME280;36826;47.514;19.056;2023-07-31T06:22:14;99901.63;;;38.66;20.65
50859;BME280;36826;47.514;19.056;2023-07-31T06:24:40;99902.56;;;37.73;21.25
50859;BME280;36826;47.514;19.056;2023-07-31T06:27:06;99906.38;;;38.83;20.40
50859;BME280;36826;47.514;19.056;2023-07-31T06:29:31;99898.41;;;40.35;19.19
50859;BME280;36826;47.514;19.056;2023-07-31T06:31:57;99899.63;;;40.92;18.82
50859;BME280;36826;47.514;19.056;2023-07-31T06:34:23;99896.72;;;38.36;20.74
50859;BME280;36826;47.514;19.056;2023-07-31T06:36:48;99898.56;;;40.51;18.67
50859;BME280;36826;47.514;19.056;2023-07-31T06:39:14;99898.88;;;40.16;18.62
50859;BME280;36826;47.514;19.056;2023-07-31T06:41:40;99888.28;;;40.76;18.54
50859;BME280;36826;47.514;19.056;2023-07-31T06:44:06;99897.03;;;39.18;19.73
50859;BME280;36826;47.514;19.056;2023-07-31T06:46:32;99903.34;;;39.66;19.56
50859;BME280;36826;47.514;19.056;2023-07-31T06:48:57;99900.34;;;39.11;20.04
50859;BME280;36826;47.514;19.056;2023-07-31T06:51:23;99898.53;;;38.24;21.12
50859;BME280;36826;47.514;19.056;2023-07-31T06:53:48;99896.22;;;38.52;20.91
50859;BME280;36826;47.514;19.056;2023-07-31T06:56:14;99900.25;;;37.67;22.09
50859;BME280;36826;47.514;19.056;2023-07-31T06:58:39;99899.94;;;36.56;23.04
50859;BME280;36826;47.514;19.056;2023-07-31T07:01:05;99903.00;;;36.77;23.23
50859;BME280;36826;47.514;19.056;2023-07-31T07:03:30;99913.22;;;34.36;25.83
50859;BME280;36826;47.514;19.056;2023-07-31T07:05:56;99914.63;;;34.85;25.58
50859;BME280;36826;47.514;19.056;2023-07-31T07:08:21;99914.88;;;35.87;24.50
50859;BME280;36826;47.514;19.056;2023-07-31T07:10:47;99914.34;;;34.16;26.35
50859;BME280;36826;47.514;19.056;2023-07-31T07:13:13;99913.22;;;34.36;26.08
50859;BME280;36826;47.514;19.056;2023-07-31T07:15:39;99911.03;;;34.33;25.78
50859;BME280;36826;47.514;19.056;2023-07-31T07:18:04;99911.88;;;34.14;25.82
50859;BME280;36826;47.514;19.056;2023-07-31T07:20:30;99922.78;;;33.67;26.63
50859;BME280;36826;47.514;19.056;2023-07-31T07:22:56;99917.72;;;31.66;29.39
50859;BME280;36826;47.514;19.056;2023-07-31T07:25:21;99919.28;;;36.84;23.27
50859;BME280;36826;47.514;19.056;2023-07-31T07:27:47;99927.09;;;37.85;21.78
50859;BME280;36826;47.514;19.056;2023-07-31T07:30:12;99926.97;;;38.70;20.56
50859;BME280;36826;47.514;19.056;2023-07-31T07:32:39;99924.13;;;37.73;21.32
50859;BME280;36826;47.514;19.056;2023-07-31T07:35:05;99916.97;;;37.09;22.42
50859;BME280;36826;47.514;19.056;2023-07-31T07:37:31;99916.28;;;36.72;22.58
50859;BME280;36826;47.514;19.056;2023-07-31T07:39:56;99922.50;;;37.31;21.99
50859;BME280;36826;47.514;19.056;2023-07-31T07:42:22;99921.44;;;39.08;19.87
50859;BME280;36826;47.514;19.056;2023-07-31T07:44:48;99920.28;;;41.34;17.13
50859;BME280;36826;47.514;19.056;2023-07-31T07:47:14;99914.34;;;42.13;17.21
50859;BME280;36826;47.514;19.056;2023-07-31T07:49:39;99916.56;;;39.95;18.22
50859;BME280;36826;47.514;19.056;2023-07-31T07:52:05;99913.00;;;38.17;20.14
50859;BME280;36826;47.514;19.056;2023-07-31T07:54:31;99915.56;;;38.92;19.47
50859;BME280;36826;47.514;19.056;2023-07-31T07:56:57;99914.50;;;37.07;21.17
50859;BME280;36826;47.514;19.056;2023-07-31T07:59:23;99909.19;;;35.92;22.41
50859;BME280;36826;47.514;19.056;2023-07-31T08:01:48;99919.44;;;36.56;22.02
50859;BME280;36826;47.514;19.056;2023-07-31T08:04:14;99901.25;;;36.90;21.28
50859;BME280;36826;47.514;19.056;2023-07-31T08:06:39;99906.22;;;37.74;20.03
50859;BME280;36826;47.514;19.056;2023-07-31T08:09:05;99910.13;;;39.65;18.63
50859;BME280;36826;47.514;19.056;2023-07-31T08:11:34;99915.91;;;41.86;16.33
50859;BME280;36826;47.514;19.056;2023-07-31T08:14:00;99909.94;;;42.57;15.60
50859;BME280;36826;47.514;19.056;2023-07-31T08:16:26;99910.47;;;42.46;15.47
50859;BME280;36826;47.514;19.056;2023-07-31T08:18:51;99908.22;;;42.24;15.82
50859;BME280;36826;47.514;19.056;2023-07-31T08:21:18;99911.28;;;43.07;15.23
50859;BME280;36826;47.514;19.056;2023-07-31T08:23:44;99905.78;;;43.79;14.93
50859;BME280;36826;47.514;19.056;2023-07-31T08:26:19;99919.09;;;41.84;15.95
50859;BME280;36826;47.514;19.056;2023-07-31T08:28:46;99915.03;;;42.96;15.13
50859;BME280;36826;47.514;19.056;2023-07-31T08:31:12;99922.06;;;41.26;16.53
50859;BME280;36826;47.514;19.056;2023-07-31T08:33:39;99911.75;;;42.21;15.78
50859;BME280;36826;47.514;19.056;2023-07-31T08:36:05;99924.16;;;41.66;16.62
50859;BME280;36826;47.514;19.056;2023-07-31T08:38:32;99919.25;;;42.73;15.42
50859;BME280;36826;47.514;19.056;2023-07-31T08:40:58;99915.09;;;41.85;15.92
50859;BME280;36826;47.514;19.056;2023-07-31T08:43:26;99912.72;;;44.21;14.71
50859;BME280;36826;47.514;19.056;2023-07-31T08:45:51;99918.03;;;43.19;14.90
50859;BME280;36826;47.514;19.056;2023-07-31T08:48:19;99915.03;;;42.67;15.27
50859;BME280;36826;47.514;19.056;2023-07-31T08:50:45;99907.72;;;43.94;14.41
50859;BME280;36826;47.514;19.056;2023-07-31T08:53:10;99908.13;;;41.54;15.79
50859;BME280;36826;47.514;19.056;2023-07-31T08:55:37;99904.94;;;42.22;15.28
50859;BME280;36826;47.514;19.056;2023-07-31T08:58:04;99905.69;;;42.47;15.11
50859;BME280;36826;47.514;19.056;2023-07-31T09:00:31;99907.88;;;43.82;13.81
50859;BME280;36826;47.514;19.056;2023-07-31T09:03:00;99895.56;;;42.17;15.44
50859;BME280;36826;47.514;19.056;2023-07-31T09:05:29;99898.56;;;42.82;14.66
50859;BME280;36826;47.514;19.056;2023-07-31T09:07:55;99904.13;;;41.68;15.59
50859;BME280;36826;47.514;19.056;2023-07-31T09:10:22;99898.06;;;42.63;14.80
50859;BME280;36826;47.514;19.056;2023-07-31T09:12:50;99895.94;;;42.16;15.50
50859;BME280;36826;47.514;19.056;2023-07-31T09:15:17;99899.16;;;42.75;15.07
50859;BME280;36826;47.514;19.056;2023-07-31T09:17:44;99893.34;;;41.70;15.16
50859;BME280;36826;47.514;19.056;2023-07-31T09:20:18;99890.97;;;41.84;15.49
50859;BME280;36826;47.514;19.056;2023-07-31T09:22:45;99896.75;;;41.14;16.36
50859;BME280;36826;47.514;19.056;2023-07-31T09:27:48;99894.72;;;41.02;16.14
50859;BME280;36826;47.514;19.056;2023-07-31T09:30:15;99893.28;;;42.07;15.50
50859;BME280;36826;47.514;19.056;2023-07-31T09:32:46;99884.34;;;41.02;16.44
50859;BME280;36826;47.514;19.056;2023-07-31T09:37:39;99892.47;;;40.83;16.33
50859;BME280;36826;47.514;19.056;2023-07-31T09:40:05;99889.28;;;42.65;15.62
50859;BME280;36826;47.514;19.056;2023-07-31T09:42:30;99886.03;;;43.79;14.67
50859;BME280;36826;47.514;19.056;2023-07-31T09:45:07;99881.88;;;44.32;14.46
50859;BME280;36826;47.514;19.056;2023-07-31T09:47:35;99877.13;;;43.96;14.45
50859;BME280;36826;47.514;19.056;2023-07-31T09:50:01;99871.81;;;41.62;15.87
50859;BME280;36826;47.514;19.056;2023-07-31T09:52:26;99878.84;;;41.31;16.04
50859;BME280;36826;47.514;19.056;2023-07-31T09:54:52;99878.97;;;42.12;15.60
50859;BME280;36826;47.514;19.056;2023-07-31T09:57:21;99872.91;;;44.06;14.09
50859;BME280;36826;47.514;19.056;2023-07-31T09:59:48;99872.00;;;44.84;13.74
50859;BME280;36826;47.514;19.056;2023-07-31T10:02:21;99871.34;;;44.28;14.26
50859;BME280;36826;47.514;19.056;2023-07-31T10:04:49;99878.13;;;44.24;14.09
50859;BME280;36826;47.514;19.056;2023-07-31T10:07:17;99866.13;;;43.72;14.26
50859;BME280;36826;47.514;19.056;2023-07-31T10:09:44;99881.56;;;43.42;14.83
50859;BME280;36826;47.514;19.056;2023-07-31T10:12:12;99864.50;;;43.71;14.50
50859;BME280;36826;47.514;19.056;2023-07-31T10:14:41;99886.28;;;43.38;14.33
50859;BME280;36826;47.514;19.056;2023-07-31T10:17:06;99869.03;;;43.40;14.37
50859;BME280;36826;47.514;19.056;2023-07-31T10:19:33;99871.13;;;44.18;14.04
50859;BME280;36826;47.514;19.056;2023-07-31T10:22:00;99881.94;;;44.55;13.71
50859;BME280;36826;47.514;19.056;2023-07-31T10:24:28;99878.31;;;43.76;14.04
50859;BME280;36826;47.514;19.056;2023-07-31T10:26:57;99877.47;;;43.07;14.68
50859;BME280;36826;47.514;19.056;2023-07-31T10:29:24;99871.13;;;41.52;15.82
50859;BME280;36826;47.514;19.056;2023-07-31T10:31:50;99875.16;;;41.92;15.60
50859;BME280;36826;47.514;19.056;2023-07-31T10:34:17;99865.03;;;41.13;15.97
50859;BME280;36826;47.514;19.056;2023-07-31T10:36:43;99863.84;;;38.98;17.94
50859;BME280;36826;47.514;19.056;2023-07-31T10:39:34;99866.91;;;39.74;17.69
50859;BME280;36826;47.514;19.056;2023-07-31T10:42:13;99861.19;;;39.02;18.62
50859;BME280;36826;47.514;19.056;2023-07-31T10:44:44;99868.09;;;37.96;19.54
50859;BME280;36826;47.514;19.056;2023-07-31T10:47:10;99860.94;;;36.96;20.11
50859;BME280;36826;47.514;19.056;2023-07-31T10:49:39;99866.06;;;36.49;20.66
50859;BME280;36826;47.514;19.056;2023-07-31T10:52:04;99860.72;;;36.38;21.00
50859;BME280;36826;47.514;19.056;2023-07-31T10:54:30;99839.75;;;35.45;21.98
50859;BME280;36826;47.514;19.056;2023-07-31T10:56:56;99841.69;;;34.88;22.70
50859;BME280;36826;47.514;19.056;2023-07-31T10:59:26;99849.66;;;36.02;21.75
50859;BME280;36826;47.514;19.056;2023-07-31T11:01:54;99833.53;;;34.78;22.50
50859;BME280;36826;47.514;19.056;2023-07-31T11:04:26;99844.00;;;36.16;21.53
50859;BME280;36826;47.514;19.056;2023-07-31T11:07:02;99847.16;;;37.40;19.70
50859;BME280;36826;47.514;19.056;2023-07-31T11:09:30;99845.72;;;35.89;21.20
50859;BME280;36826;47.514;19.056;2023-07-31T11:11:57;99833.03;;;35.32;21.54
50859;BME280;36826;47.514;19.056;2023-07-31T11:14:23;99841.59;;;33.94;23.25
50859;BME280;36826;47.514;19.056;2023-07-31T11:16:50;99841.81;;;35.11;22.13
50859;BME280;36826;47.514;19.056;2023-07-31T11:19:26;99833.34;;;36.63;20.89
50859;BME280;36826;47.514;19.056;2023-07-31T11:21:52;99835.09;;;36.28;21.06
50859;BME280;36826;47.514;19.056;2023-07-31T11:24:18;99829.59;;;34.79;22.22
50859;BME280;36826;47.514;19.056;2023-07-31T11:26:53;99832.94;;;36.24;20.84
50859;BME280;36826;47.514;19.056;2023-07-31T11:29:20;99818.88;;;36.07;20.98
50859;BME280;36826;47.514;19.056;2023-07-31T11:31:47;99821.88;;;35.60;21.54
50859;BME280;36826;47.514;19.056;2023-07-31T11:34:13;99837.53;;;35.70;21.28
50859;BME280;36826;47.514;19.056;2023-07-31T11:36:40;99821.88;;;36.65;20.34
50859;BME280;36826;47.514;19.056;2023-07-31T11:39:08;99830.69;;;36.35;20.50
50859;BME280;36826;47.514;19.056;2023-07-31T11:41:34;99821.72;;;36.16;20.57
50859;BME280;36826;47.514;19.056;2023-07-31T11:44:00;99813.88;;;36.18;20.60
50859;BME280;36826;47.514;19.056;2023-07-31T11:46:26;99820.88;;;35.56;21.32
50859;BME280;36826;47.514;19.056;2023-07-31T11:48:52;99818.81;;;34.92;21.83
50859;BME280;36826;47.514;19.056;2023-07-31T11:51:19;99817.50;;;35.45;21.44
50859;BME280;36826;47.514;19.056;2023-07-31T11:53:51;99812.53;;;35.56;21.35
50859;BME280;36826;47.514;19.056;2023-07-31T11:56:18;99819.34;;;35.86;21.03
50859;BME280;36826;47.514;19.056;2023-07-31T11:58:46;99810.38;;;35.75;21.35
50859;BME280;36826;47.514;19.056;2023-07-31T12:01:14;99813.94;;;35.90;21.45
50859;BME280;36826;47.514;19.056;2023-07-31T12:03:40;99817.59;;;35.26;21.79
50859;BME280;36826;47.514;19.056;2023-07-31T12:06:08;99808.38;;;34.83;22.01
50859;BME280;36826;47.514;19.056;2023-07-31T12:08:34;99812.81;;;34.84;21.72
50859;BME280;36826;47.514;19.056;2023-07-31T12:11:04;99797.69;;;36.51;20.06
50859;BME280;36826;47.514;19.056;2023-07-31T12:13:30;99797.00;;;36.00;20.58
50859;BME280;36826;47.514;19.056;2023-07-31T12:15:58;99801.88;;;35.58;21.63
50859;BME280;36826;47.514;19.056;2023-07-31T12:18:29;99800.56;;;35.27;21.62
50859;BME280;36826;47.514;19.056;2023-07-31T12:20:57;99787.06;;;34.79;22.30
50859;BME280;36826;47.514;19.056;2023-07-31T12:23:24;99787.94;;;36.40;20.40
50859;BME280;36826;47.514;19.056;2023-07-31T12:28:35;99780.38;;;35.36;21.47
50859;BME280;36826;47.514;19.056;2023-07-31T12:31:04;99784.19;;;34.70;22.12
50859;BME280;36826;47.514;19.056;2023-07-31T12:33:35;99791.09;;;34.72;22.69
50859;BME280;36826;47.514;19.056;2023-07-31T12:36:03;99783.88;;;34.24;23.00
50859;BME280;36826;47.514;19.056;2023-07-31T12:38:29;99783.84;;;35.78;21.29
50859;BME280;36826;47.514;19.056;2023-07-31T12:40:55;99786.31;;;34.12;23.46
50859;BME280;36826;47.514;19.056;2023-07-31T12:43:20;99777.84;;;34.03;23.56
50859;BME280;36826;47.514;19.056;2023-07-31T12:45:46;99772.31;;;34.17;23.27
50859;BME280;36826;47.514;19.056;2023-07-31T12:48:13;99787.59;;;34.95;22.05
50859;BME280;36826;47.514;19.056;2023-07-31T12:50:39;99775.28;;;34.40;23.02
50859;BME280;36826;47.514;19.056;2023-07-31T12:53:05;99771.22;;;35.07;22.34
50859;BME280;36826;47.514;19.056;2023-07-31T12:55:32;99769.66;;;34.26;23.04
50859;BME280;36826;47.514;19.056;2023-07-31T12:58:00;99765.63;;;34.79;22.39
50859;BME280;36826;47.514;19.056;2023-07-31T13:00:25;99766.63;;;35.39;21.73